createdAt,value
2023-05-14T00:01:52.249Z,13.52
2023-05-14T00:06:55.083Z,13.28
2023-05-14T00:11:59.429Z,13.05
2023-05-14T00:17:01.889Z,13.31
2023-05-14T00:22:04.277Z,13.28
2023-05-14T00:27:07.378Z,13.20
2023-05-14T00:32:10.265Z,13.27
2023-05-14T00:37:13.242Z,13.21
2023-05-14T00:42:15.671Z,12.97
2023-05-14T00:47:18.268Z,12.87
2023-05-14T00:52:22.898Z,13.20
2023-05-14T00:57:25.846Z,13.00
2023-05-14T01:02:28.719Z,13.04
2023-05-14T01:07:46.610Z,12.72
2023-05-14T01:13:09.822Z,12.98
2023-05-14T01:18:16.972Z,13.07
2023-05-14T01:23:20.993Z,12.80
2023-05-14T01:28:35.120Z,13.10
2023-05-14T01:33:41.684Z,12.92
2023-05-14T01:38:46.633Z,12.87
2023-05-14T01:43:49.640Z,12.71
2023-05-14T01:48:54.116Z,12.85
2023-05-14T01:53:57.197Z,12.98
2023-05-14T01:59:00.352Z,13.11
2023-05-14T02:04:02.781Z,13.27
2023-05-14T02:09:05.319Z,13.42
2023-05-14T02:14:08.465Z,12.91
2023-05-14T02:19:11.474Z,13.58
2023-05-14T02:24:34.348Z,13.75
2023-05-14T02:29:36.624Z,13.94
2023-05-14T02:34:39.568Z,14.08
2023-05-14T02:39:43.030Z,14.26
2023-05-14T02:44:46.062Z,14.71
2023-05-14T02:49:48.494Z,14.84
2023-05-14T02:54:50.847Z,15.17
2023-05-14T02:59:53.817Z,15.57
2023-05-14T03:04:56.341Z,16.22
2023-05-14T03:10:00.538Z,17.56
2023-05-14T03:15:05.431Z,18.76
2023-05-14T03:20:08.740Z,19.98
2023-05-14T03:25:11.556Z,20.89
2023-05-14T03:30:14.115Z,21.88
2023-05-14T03:35:17.874Z,22.72
2023-05-14T03:40:21.864Z,23.38
2023-05-14T03:45:27.209Z,24.05
2023-05-14T03:50:29.722Z,24.89
2023-05-14T03:55:32.124Z,25.45
2023-05-14T04:00:35.332Z,25.95
2023-05-14T04:05:37.579Z,26.74
2023-05-14T04:10:41.316Z,26.84
2023-05-14T04:15:44.357Z,27.54
2023-05-14T04:20:47.808Z,27.98
2023-05-14T04:25:52.173Z,28.44
2023-05-14T04:30:55.677Z,28.33
2023-05-14T04:35:58.122Z,28.85
2023-05-14T04:41:00.620Z,29.16
2023-05-14T04:46:05.138Z,29.57
2023-05-14T04:51:08.826Z,29.82
2023-05-14T04:56:12.791Z,29.96
2023-05-14T05:01:16.012Z,30.45
2023-05-14T05:06:19.541Z,31.17
2023-05-14T05:11:21.924Z,31.25
2023-05-14T05:16:24.871Z,31.66
2023-05-14T05:21:27.915Z,31.96
2023-05-14T05:26:32.558Z,32.27
2023-05-14T05:31:36.933Z,32.20
2023-05-14T05:36:39.894Z,32.52
2023-05-14T05:41:42.709Z,32.90
2023-05-14T05:46:47.233Z,32.96
2023-05-14T05:51:51.580Z,33.30
2023-05-14T05:56:54.600Z,33.33
2023-05-14T06:01:57.520Z,33.51
2023-05-14T06:07:00.410Z,33.32
2023-05-14T06:12:04.072Z,33.55
2023-05-14T06:17:07.773Z,33.71
2023-05-14T06:22:10.689Z,33.52
2023-05-14T06:27:13.931Z,33.81
2023-05-14T06:32:16.439Z,33.91
2023-05-14T06:37:18.850Z,33.81
2023-05-14T06:42:21.456Z,33.61
2023-05-14T06:47:25.502Z,33.40
2023-05-14T06:52:28.898Z,33.73
2023-05-14T06:57:32.366Z,33.68
2023-05-14T07:02:36.914Z,33.47
2023-05-14T07:07:39.850Z,33.41
2023-05-14T07:12:44.338Z,33.16
2023-05-14T07:17:47.244Z,32.96
2023-05-14T07:22:53.363Z,32.86
2023-05-14T07:27:57.201Z,32.45
2023-05-14T07:33:00.316Z,32.21
2023-05-14T07:38:03.324Z,31.63
2023-05-14T07:43:06.162Z,31.39
2023-05-14T07:48:09.612Z,31.25
2023-05-14T07:53:11.998Z,30.59
2023-05-14T07:58:15.118Z,30.06
2023-05-14T08:03:18.093Z,29.36
2023-05-14T08:08:20.888Z,28.95
2023-05-14T08:13:23.182Z,28.83
2023-05-14T08:18:26.756Z,28.44
2023-05-14T08:23:29.156Z,28.12
2023-05-14T08:28:31.656Z,27.82
2023-05-14T08:33:34.186Z,27.61
2023-05-14T08:38:36.551Z,27.71
2023-05-14T08:43:45.642Z,27.58
2023-05-14T08:48:57.984Z,27.33
2023-05-14T08:54:03.347Z,27.27
2023-05-14T08:59:06.477Z,27.32
2023-05-14T09:04:09.968Z,27.21
2023-05-14T09:09:13.380Z,26.89
2023-05-14T09:14:16.264Z,26.93
2023-05-14T09:19:21.626Z,26.85
2023-05-14T09:24:26.487Z,26.91
2023-05-14T09:29:30.001Z,26.74
2023-05-14T09:34:35.331Z,26.90
2023-05-14T09:39:41.472Z,26.89
2023-05-14T09:44:43.864Z,26.78
2023-05-14T09:49:49.846Z,26.73
2023-05-14T09:54:53.543Z,26.72
2023-05-14T09:59:57.434Z,26.70
2023-05-14T10:05:02.942Z,26.66
2023-05-14T10:10:09.473Z,26.66
2023-05-14T10:15:23.259Z,26.28
2023-05-14T10:20:27.934Z,26.02
2023-05-14T10:25:31.382Z,25.80
2023-05-14T10:30:34.658Z,25.77
2023-05-14T10:35:58.325Z,25.47
2023-05-14T10:41:12.165Z,25.61
2023-05-14T10:46:15.195Z,25.47
2023-05-14T10:51:21.506Z,25.61
2023-05-14T10:56:24.738Z,25.65
2023-05-14T11:01:29.680Z,25.63
2023-05-14T11:06:33.314Z,25.83
2023-05-14T11:11:37.691Z,25.77
2023-05-14T11:16:41.632Z,25.88
2023-05-14T11:21:45.745Z,25.73
2023-05-14T11:26:48.772Z,25.84
2023-05-14T11:31:51.160Z,25.51
2023-05-14T11:36:53.928Z,25.28
2023-05-14T11:42:20.375Z,25.24
2023-05-14T11:47:23.224Z,25.14
2023-05-14T11:52:26.069Z,25.11
2023-05-14T11:57:31.377Z,25.22
2023-05-14T12:02:34.620Z,24.96
2023-05-14T12:07:37.045Z,25.11
2023-05-14T12:12:40.018Z,25.00
2023-05-14T12:17:44.233Z,24.54
2023-05-14T12:22:46.977Z,24.95
2023-05-14T12:27:49.847Z,24.51
2023-05-14T12:32:53.329Z,24.57
2023-05-14T12:37:56.589Z,24.64
2023-05-14T12:42:59.440Z,24.64
2023-05-14T12:48:02.997Z,24.62
2023-05-14T12:53:05.922Z,24.59
2023-05-14T12:58:08.285Z,24.72
2023-05-14T13:03:11.248Z,24.86
2023-05-14T13:08:18.466Z,24.94
2023-05-14T13:13:21.101Z,24.95
2023-05-14T13:18:23.349Z,24.93
2023-05-14T13:23:27.422Z,24.76
2023-05-14T13:28:30.238Z,24.90
2023-05-14T13:33:38.055Z,24.84
2023-05-14T13:38:42.406Z,24.58
2023-05-14T13:43:45.399Z,24.54
2023-05-14T13:48:48.317Z,24.55
2023-05-14T13:53:52.090Z,24.31
2023-05-14T13:58:54.790Z,24.34
2023-05-14T14:03:59.216Z,24.25
2023-05-14T14:09:02.144Z,24.17
2023-05-14T14:14:04.768Z,24.17
2023-05-14T14:19:07.354Z,24.04
2023-05-14T14:24:10.675Z,24.08
2023-05-14T14:29:13.857Z,24.17
2023-05-14T14:34:16.656Z,23.94
2023-05-14T14:39:21.313Z,23.69
2023-05-14T14:44:24.171Z,23.56
2023-05-14T14:49:29.359Z,23.27
2023-05-14T14:54:32.787Z,23.39
2023-05-14T14:59:36.428Z,23.41
2023-05-14T15:04:39.027Z,23.30
2023-05-14T15:09:41.904Z,22.96
2023-05-14T15:14:47.280Z,23.14
2023-05-14T15:19:50.033Z,23.08
2023-05-14T15:24:53.242Z,22.89
2023-05-14T15:29:56.439Z,22.85
2023-05-14T15:34:58.871Z,22.70
2023-05-14T15:40:01.865Z,22.65
2023-05-14T15:45:06.196Z,22.41
2023-05-14T15:50:10.538Z,22.65
2023-05-14T15:55:12.952Z,22.41
2023-05-14T16:00:16.593Z,22.47
2023-05-14T16:05:19.288Z,22.31
2023-05-14T16:10:22.749Z,22.12
2023-05-14T16:15:26.142Z,21.96
2023-05-14T16:20:29.082Z,21.77
2023-05-14T16:25:32.228Z,21.40
2023-05-14T16:30:35.277Z,21.33
2023-05-14T16:35:37.753Z,21.07
2023-05-14T16:40:40.066Z,21.01
2023-05-14T16:45:42.983Z,20.76
2023-05-14T16:50:46.207Z,20.58
2023-05-14T16:55:48.565Z,20.54
2023-05-14T17:00:51.090Z,20.24
2023-05-14T17:05:54.522Z,20.27
2023-05-14T17:10:57.216Z,19.93
2023-05-14T17:16:00.485Z,19.92
2023-05-14T17:21:05.028Z,19.83
2023-05-14T17:26:07.589Z,19.59
2023-05-14T17:31:10.083Z,19.46
2023-05-14T17:36:12.364Z,19.19
2023-05-14T17:41:15.004Z,19.17
2023-05-14T17:46:17.527Z,18.66
2023-05-14T17:51:19.881Z,19.07
2023-05-14T17:56:23.415Z,18.84
2023-05-14T18:01:26.199Z,18.91
2023-05-14T18:06:28.731Z,18.72
2023-05-14T18:11:33.919Z,18.41
2023-05-14T18:16:37.953Z,18.57
2023-05-14T18:21:40.205Z,18.25
2023-05-14T18:26:42.716Z,18.20
2023-05-14T18:31:45.061Z,18.33
2023-05-14T18:36:47.712Z,18.16
2023-05-14T18:41:50.077Z,18.15
2023-05-14T18:46:53.510Z,18.09
2023-05-14T18:51:56.128Z,17.63
2023-05-14T18:56:58.972Z,18.05
2023-05-14T19:02:02.182Z,17.93
2023-05-14T19:07:05.443Z,17.44
2023-05-14T19:12:08.405Z,17.84
2023-05-14T19:17:11.729Z,17.55
2023-05-14T19:22:14.246Z,17.72
2023-05-14T19:27:17.736Z,17.50
2023-05-14T19:32:20.198Z,17.59
2023-05-14T19:37:23.309Z,17.49
2023-05-14T19:42:25.897Z,17.32
2023-05-14T19:47:29.316Z,17.24
2023-05-14T19:52:32.504Z,17.22
2023-05-14T19:57:35.323Z,17.27
2023-05-14T20:02:40.855Z,17.00
2023-05-14T20:07:43.950Z,17.12
2023-05-14T20:12:46.299Z,17.06
2023-05-14T20:17:48.780Z,17.10
2023-05-14T20:22:51.157Z,17.13
2023-05-14T20:27:53.643Z,17.19
2023-05-14T20:32:56.380Z,17.14
2023-05-14T20:37:59.780Z,16.98
2023-05-14T20:43:02.215Z,17.02
2023-05-14T20:48:10.398Z,17.32
2023-05-14T20:53:13.179Z,17.32
2023-05-14T20:58:16.171Z,17.41
2023-05-14T21:03:18.680Z,17.39
2023-05-14T21:08:21.847Z,17.54
2023-05-14T21:13:24.303Z,17.58
2023-05-14T21:18:31.407Z,17.61
2023-05-14T21:23:34.927Z,17.54
2023-05-14T21:28:37.310Z,17.57
2023-05-14T21:33:41.064Z,17.55
2023-05-14T21:38:43.964Z,17.54
2023-05-14T21:43:47.125Z,17.36
2023-05-14T21:48:50.094Z,17.58
2023-05-14T21:53:52.999Z,17.31
2023-05-14T21:58:56.292Z,17.45
2023-05-14T22:03:59.075Z,17.27
2023-05-14T22:09:03.114Z,17.19
2023-05-14T22:14:06.573Z,17.16
2023-05-14T22:19:08.894Z,17.02
2023-05-14T22:24:11.943Z,16.94
2023-05-14T22:29:15.425Z,16.89
2023-05-14T22:34:17.846Z,17.05
2023-05-14T22:39:21.161Z,16.99
2023-05-14T22:44:25.795Z,16.98
2023-05-14T22:49:29.863Z,16.76
2023-05-14T22:54:32.270Z,17.11
2023-05-14T22:59:34.638Z,17.08
2023-05-14T23:04:37.088Z,16.93
2023-05-14T23:09:39.513Z,17.00
2023-05-14T23:14:42.804Z,16.96
2023-05-14T23:19:46.322Z,16.86
2023-05-14T23:24:48.765Z,16.95
2023-05-14T23:29:51.356Z,16.96
2023-05-14T23:34:54.234Z,16.68
2023-05-14T23:39:57.168Z,16.61
2023-05-14T23:44:59.444Z,16.53
2023-05-14T23:50:02.301Z,16.36
2023-05-14T23:55:07.463Z,16.31
